createdAt,value
2017-12-17T00:02:15.639Z,86.77
2017-12-17T00:04:43.963Z,86.78
2017-12-17T00:07:13.088Z,86.51
2017-12-17T00:09:41.408Z,87.06
2017-12-17T00:12:09.761Z,87.03
2017-12-17T00:14:38.126Z,87.27
2017-12-17T00:17:06.479Z,87.05
2017-12-17T00:19:35.576Z,86.80
2017-12-17T00:22:04.693Z,87.01
2017-12-17T00:27:30.724Z,86.66
2017-12-17T00:29:59.064Z,86.85
2017-12-17T00:32:27.399Z,86.83
2017-12-17T00:34:55.883Z,87.23
2017-12-17T00:37:24.257Z,87.27
2017-12-17T00:39:52.588Z,87.49
2017-12-17T00:42:20.988Z,87.41
2017-12-17T00:44:49.324Z,87.51
2017-12-17T00:47:18.481Z,87.76
2017-12-17T00:49:46.817Z,88.00
2017-12-17T00:52:15.150Z,87.53
2017-12-17T00:54:43.492Z,87.06
2017-12-17T00:57:12.668Z,86.64
2017-12-17T00:59:40.990Z,86.33
2017-12-17T01:02:09.379Z,86.24
2017-12-17T01:04:37.808Z,86.43
2017-12-17T01:07:06.895Z,86.66
2017-12-17T01:09:35.248Z,86.92
2017-12-17T01:12:03.584Z,86.87
2017-12-17T01:14:31.901Z,86.70
2017-12-17T01:17:00.304Z,87.20
2017-12-17T01:19:28.659Z,87.10
2017-12-17T01:21:57.258Z,87.10
2017-12-17T01:24:25.622Z,87.32
2017-12-17T01:26:54.031Z,86.86
2017-12-17T01:29:23.134Z,87.03
2017-12-17T01:31:52.261Z,87.24
2017-12-17T01:34:20.589Z,87.19
2017-12-17T01:36:49.021Z,87.40
2017-12-17T01:39:17.390Z,87.43
2017-12-17T01:41:45.715Z,86.93
2017-12-17T01:44:14.068Z,86.56
2017-12-17T01:46:42.434Z,86.56
2017-12-17T01:49:10.757Z,86.14
2017-12-17T01:51:39.141Z,85.47
2017-12-17T01:54:08.239Z,85.42
2017-12-17T01:56:37.345Z,85.19
2017-12-17T01:59:06.467Z,85.14
2017-12-17T02:01:34.796Z,85.51
2017-12-17T02:04:03.112Z,85.39
2017-12-17T02:06:31.506Z,85.73
2017-12-17T02:08:59.832Z,85.80
2017-12-17T02:11:28.944Z,85.83
2017-12-17T02:13:57.344Z,85.83
2017-12-17T02:16:25.680Z,86.12
2017-12-17T02:18:54.811Z,85.99
2017-12-17T02:21:23.192Z,86.04
2017-12-17T02:23:51.505Z,85.93
2017-12-17T02:26:19.906Z,86.11
2017-12-17T02:28:48.251Z,86.15
2017-12-17T02:31:16.612Z,86.06
2017-12-17T02:33:44.962Z,86.26
2017-12-17T02:36:14.042Z,86.33
2017-12-17T02:38:43.159Z,86.40
2017-12-17T02:41:11.482Z,86.29
2017-12-17T02:43:39.861Z,86.51
2017-12-17T02:46:08.987Z,85.98
2017-12-17T02:48:38.108Z,86.21
2017-12-17T02:51:06.495Z,85.85
2017-12-17T02:53:34.824Z,85.56
2017-12-17T02:56:03.188Z,86.05
2017-12-17T02:58:31.536Z,86.31
2017-12-17T03:00:59.996Z,86.72
2017-12-17T03:03:28.327Z,86.76
2017-12-17T03:05:56.672Z,87.20
2017-12-17T03:08:25.023Z,87.48
2017-12-17T03:10:54.250Z,87.57
2017-12-17T03:13:22.580Z,87.65
2017-12-17T03:15:51.732Z,87.61
2017-12-17T03:18:20.069Z,87.66
2017-12-17T03:20:48.465Z,87.52
2017-12-17T03:23:17.622Z,87.64
2017-12-17T03:25:46.722Z,87.40
2017-12-17T03:28:15.087Z,87.70
2017-12-17T03:30:43.500Z,87.78
2017-12-17T03:33:12.677Z,87.99
2017-12-17T03:35:41.052Z,88.13
2017-12-17T03:38:10.177Z,88.02
2017-12-17T03:40:38.488Z,87.91
2017-12-17T03:45:42.830Z,87.59
2017-12-17T03:48:11.161Z,87.69
2017-12-17T03:50:39.495Z,87.90
2017-12-17T03:53:07.828Z,88.07
2017-12-17T03:55:36.245Z,87.87
2017-12-17T03:58:04.677Z,88.03
2017-12-17T04:00:33.019Z,88.24
2017-12-17T04:03:01.472Z,88.04
2017-12-17T04:05:29.793Z,88.28
2017-12-17T04:07:58.892Z,88.16
2017-12-17T04:10:28.042Z,88.26
2017-12-17T04:12:56.356Z,87.95
2017-12-17T04:15:25.464Z,87.78
2017-12-17T04:17:54.580Z,87.64
2017-12-17T04:20:22.951Z,87.62
2017-12-17T04:22:51.268Z,87.48
2017-12-17T04:25:19.589Z,87.68
2017-12-17T04:27:48.712Z,87.59
2017-12-17T04:30:17.032Z,87.62
2017-12-17T04:32:45.380Z,87.45
2017-12-17T04:35:13.729Z,87.55
2017-12-17T04:37:42.057Z,87.69
2017-12-17T04:40:10.417Z,87.96
2017-12-17T04:42:38.738Z,88.11
2017-12-17T04:45:07.865Z,88.08
2017-12-17T04:47:36.211Z,88.43
2017-12-17T04:50:05.314Z,88.34
2017-12-17T04:52:34.474Z,88.44
2017-12-17T04:55:02.816Z,88.79
2017-12-17T04:57:31.148Z,88.59
2017-12-17T04:59:59.510Z,88.04
2017-12-17T05:02:27.911Z,88.09
2017-12-17T05:04:56.292Z,87.86
2017-12-17T05:07:25.391Z,87.89
2017-12-17T05:09:54.479Z,87.61
2017-12-17T05:12:23.591Z,87.71
2017-12-17T05:14:51.924Z,87.39
2017-12-17T05:17:20.284Z,87.54
2017-12-17T05:19:48.708Z,87.41
2017-12-17T05:22:17.794Z,86.82
2017-12-17T05:24:46.142Z,86.68
2017-12-17T05:27:14.502Z,86.60
2017-12-17T05:29:42.840Z,86.55
2017-12-17T05:32:11.954Z,86.02
2017-12-17T05:34:40.321Z,85.82
2017-12-17T05:37:09.429Z,85.83
2017-12-17T05:39:37.770Z,86.34
2017-12-17T05:42:06.161Z,86.33
2017-12-17T05:44:35.259Z,86.07
2017-12-17T05:47:04.368Z,86.35
2017-12-17T05:49:32.700Z,86.25
2017-12-17T05:52:01.079Z,87.62
2017-12-17T05:54:29.395Z,88.10
2017-12-17T05:56:57.873Z,89.03
2017-12-17T05:59:27.020Z,89.42
2017-12-17T06:01:55.347Z,90.06
2017-12-17T06:04:24.549Z,90.83
2017-12-17T06:06:52.896Z,90.89
2017-12-17T06:09:21.232Z,90.83
2017-12-17T06:11:49.574Z,91.11
2017-12-17T06:14:18.652Z,90.79
2017-12-17T06:16:47.028Z,90.98
2017-12-17T06:19:15.366Z,90.87
2017-12-17T06:21:43.709Z,91.26
2017-12-17T06:24:12.844Z,91.59
2017-12-17T06:26:41.176Z,91.91
2017-12-17T06:29:10.275Z,92.02
2017-12-17T06:31:39.551Z,91.71
2017-12-17T06:34:07.880Z,91.82
2017-12-17T06:36:36.217Z,91.88
2017-12-17T06:39:05.386Z,91.75
2017-12-17T06:41:33.790Z,91.25
2017-12-17T06:44:02.897Z,91.63
2017-12-17T06:46:31.341Z,91.90
2017-12-17T06:48:59.675Z,91.85
2017-12-17T06:51:27.997Z,91.73
2017-12-17T06:53:56.395Z,91.95
2017-12-17T06:56:25.501Z,91.91
2017-12-17T06:58:54.585Z,92.08
2017-12-17T07:01:22.926Z,92.25
2017-12-17T07:03:51.253Z,92.15
2017-12-17T07:06:20.440Z,91.94
2017-12-17T07:08:48.832Z,92.29
2017-12-17T07:11:17.164Z,91.95
2017-12-17T07:13:46.388Z,91.63
2017-12-17T07:16:14.717Z,91.22
2017-12-17T07:18:43.042Z,90.92
2017-12-17T07:21:11.400Z,91.08
2017-12-17T07:23:39.712Z,91.16
2017-12-17T07:26:08.049Z,91.51
2017-12-17T07:28:36.422Z,90.73
2017-12-17T07:31:05.278Z,90.74
2017-12-17T07:33:33.603Z,90.12
2017-12-17T07:36:01.977Z,88.65
2017-12-17T07:38:30.301Z,88.25
2017-12-17T07:40:58.629Z,88.14
2017-12-17T07:43:26.964Z,88.06
2017-12-17T07:45:55.312Z,88.05
2017-12-17T07:48:24.642Z,88.39
2017-12-17T07:50:52.980Z,88.61
2017-12-17T07:53:22.224Z,88.26
2017-12-17T07:55:50.666Z,87.99
2017-12-17T07:58:19.749Z,87.29
2017-12-17T08:00:48.078Z,87.59
2017-12-17T08:03:16.538Z,87.60
2017-12-17T08:05:44.867Z,87.42
2017-12-17T08:08:13.217Z,87.43
2017-12-17T08:10:41.539Z,87.36
2017-12-17T08:13:11.085Z,88.25
2017-12-17T08:15:39.742Z,88.19
2017-12-17T08:18:08.843Z,88.22
2017-12-17T08:20:37.956Z,89.01
2017-12-17T08:23:06.309Z,88.85
2017-12-17T08:25:35.438Z,88.93
2017-12-17T08:28:03.853Z,88.68
2017-12-17T08:30:33.049Z,88.44
2017-12-17T08:33:03.723Z,87.93
2017-12-17T08:35:32.851Z,87.96
2017-12-17T08:38:01.172Z,88.37
2017-12-17T08:40:29.497Z,88.38
2017-12-17T08:42:57.950Z,88.25
2017-12-17T08:45:27.049Z,88.15
2017-12-17T08:47:56.212Z,88.38
2017-12-17T08:50:24.613Z,88.17
2017-12-17T08:52:53.760Z,87.53
2017-12-17T08:55:22.145Z,87.82
2017-12-17T08:57:50.548Z,87.48
2017-12-17T09:00:18.944Z,87.38
2017-12-17T09:02:47.302Z,87.22
2017-12-17T09:05:15.735Z,87.35
2017-12-17T09:07:44.102Z,87.01
2017-12-17T09:10:12.451Z,87.12
2017-12-17T09:12:41.634Z,86.86
2017-12-17T09:15:10.000Z,85.88
2017-12-17T09:17:38.426Z,86.01
2017-12-17T09:20:06.799Z,85.12
2017-12-17T09:22:35.942Z,85.15
2017-12-17T09:25:04.402Z,84.90
2017-12-17T09:27:32.760Z,84.81
2017-12-17T09:30:01.115Z,84.47
2017-12-17T09:32:29.516Z,84.92
2017-12-17T09:34:57.909Z,84.98
2017-12-17T09:37:26.281Z,84.32
2017-12-17T09:39:54.879Z,84.87
2017-12-17T09:42:23.263Z,84.80
2017-12-17T09:44:51.634Z,84.01
2017-12-17T09:47:19.971Z,84.12
2017-12-17T09:49:49.085Z,84.44
2017-12-17T09:52:17.415Z,83.59
2017-12-17T09:54:45.738Z,83.74
2017-12-17T09:57:14.104Z,83.70
2017-12-17T09:59:43.239Z,82.33
2017-12-17T10:02:11.637Z,82.42
2017-12-17T10:04:39.976Z,82.53
2017-12-17T10:07:08.440Z,82.25
2017-12-17T10:09:36.788Z,81.96
2017-12-17T10:12:05.884Z,81.31
2017-12-17T10:14:34.246Z,81.56
2017-12-17T10:17:02.645Z,81.18
2017-12-17T10:19:31.023Z,80.62
2017-12-17T10:21:59.360Z,79.04
2017-12-17T10:24:27.676Z,78.29
2017-12-17T10:26:56.020Z,77.31
2017-12-17T10:29:24.362Z,78.46
2017-12-17T10:31:52.808Z,78.49
2017-12-17T10:34:21.243Z,78.40
2017-12-17T10:36:49.562Z,78.71
2017-12-17T10:39:19.419Z,79.37
2017-12-17T10:41:47.856Z,77.89
2017-12-17T10:44:16.226Z,77.51
2017-12-17T10:46:44.552Z,78.17
2017-12-17T10:49:12.872Z,78.06
2017-12-17T10:51:41.237Z,77.72
2017-12-17T10:54:09.585Z,78.51
2017-12-17T10:56:37.975Z,76.99
2017-12-17T10:59:06.458Z,77.58
2017-12-17T11:01:34.791Z,77.50
2017-12-17T11:04:03.923Z,77.50
2017-12-17T11:06:32.243Z,78.09
2017-12-17T11:09:00.560Z,77.69
2017-12-17T11:11:28.922Z,77.95
2017-12-17T11:13:57.280Z,76.96
2017-12-17T11:16:26.380Z,77.21
2017-12-17T11:18:54.737Z,77.61
2017-12-17T11:21:23.097Z,77.50
2017-12-17T11:23:51.432Z,77.35
2017-12-17T11:26:20.528Z,77.35
2017-12-17T11:28:49.704Z,77.90
2017-12-17T11:31:18.098Z,77.67
2017-12-17T11:33:47.184Z,78.02
2017-12-17T11:36:16.308Z,77.58
2017-12-17T11:38:44.661Z,77.78
2017-12-17T11:41:13.766Z,77.81
2017-12-17T11:43:42.903Z,77.33
2017-12-17T11:46:11.296Z,76.67
2017-12-17T11:48:39.611Z,76.12
2017-12-17T11:51:08.025Z,76.03
2017-12-17T11:53:37.070Z,76.19
2017-12-17T11:56:06.176Z,76.74
2017-12-17T11:58:35.307Z,76.13
2017-12-17T12:01:03.836Z,76.05
2017-12-17T12:03:33.695Z,76.00
2017-12-17T12:06:02.045Z,76.54
2017-12-17T12:08:31.252Z,76.61
2017-12-17T12:10:59.601Z,75.60
2017-12-17T12:13:27.936Z,74.95
2017-12-17T12:15:56.317Z,75.19
2017-12-17T12:18:24.697Z,74.11
2017-12-17T12:20:53.031Z,74.72
2017-12-17T12:23:22.136Z,75.29
2017-12-17T12:25:50.495Z,75.06
2017-12-17T12:28:19.636Z,75.63
2017-12-17T12:30:47.976Z,75.30
2017-12-17T12:33:17.061Z,75.25
2017-12-17T12:35:46.189Z,76.48
2017-12-17T12:38:14.536Z,75.58
2017-12-17T12:40:42.924Z,75.19
2017-12-17T12:43:12.112Z,75.75
2017-12-17T12:45:40.505Z,75.97
2017-12-17T12:48:09.593Z,75.89
2017-12-17T12:50:38.743Z,75.05
2017-12-17T12:53:07.100Z,76.04
2017-12-17T12:55:35.487Z,77.32
2017-12-17T12:58:03.868Z,77.32
2017-12-17T13:00:32.221Z,77.06
2017-12-17T13:03:00.589Z,76.96
2017-12-17T13:05:29.691Z,77.79
2017-12-17T13:07:58.017Z,77.81
2017-12-17T13:10:26.440Z,77.32
2017-12-17T13:12:54.779Z,77.84
2017-12-17T13:15:23.096Z,77.34
2017-12-17T13:17:52.213Z,77.18
2017-12-17T13:20:20.535Z,76.89
2017-12-17T13:22:48.877Z,76.53
2017-12-17T13:25:17.229Z,76.03
2017-12-17T13:27:45.557Z,76.21
2017-12-17T13:30:13.892Z,76.30
2017-12-17T13:32:43.048Z,76.62
2017-12-17T13:35:11.550Z,77.01
2017-12-17T13:37:40.668Z,77.30
2017-12-17T13:40:09.040Z,77.82
2017-12-17T13:42:37.367Z,77.73
2017-12-17T13:45:05.704Z,77.25
2017-12-17T13:47:34.070Z,77.40
2017-12-17T13:50:02.399Z,77.28
2017-12-17T13:52:30.731Z,77.59
2017-12-17T13:54:59.084Z,78.00
2017-12-17T13:57:28.192Z,78.19
2017-12-17T13:59:56.555Z,78.49
2017-12-17T14:02:25.037Z,78.93
2017-12-17T14:04:54.160Z,78.46
2017-12-17T14:07:22.524Z,78.25
2017-12-17T14:09:50.848Z,78.60
2017-12-17T14:12:19.207Z,78.19
2017-12-17T14:14:47.571Z,77.66
2017-12-17T14:17:15.925Z,77.77
2017-12-17T14:19:45.076Z,77.95
2017-12-17T14:22:13.392Z,77.85
2017-12-17T14:24:42.504Z,78.09
2017-12-17T14:27:10.848Z,77.26
2017-12-17T14:29:39.163Z,77.58
2017-12-17T14:32:07.524Z,77.55
2017-12-17T14:34:35.900Z,77.54
2017-12-17T14:37:04.299Z,77.81
2017-12-17T14:39:32.645Z,77.94
2017-12-17T14:42:01.756Z,78.11
2017-12-17T14:44:30.847Z,78.16
2017-12-17T14:46:59.230Z,78.09
2017-12-17T14:49:27.577Z,77.35
2017-12-17T14:51:55.898Z,76.75
2017-12-17T14:54:24.265Z,76.71
2017-12-17T14:56:52.584Z,76.70
2017-12-17T14:59:20.949Z,76.90
2017-12-17T15:01:49.267Z,77.03
2017-12-17T15:04:19.116Z,76.94
2017-12-17T15:06:47.538Z,76.79
2017-12-17T15:09:15.859Z,77.12
2017-12-17T15:11:44.948Z,76.58
2017-12-17T15:14:14.297Z,76.86
2017-12-17T15:16:42.644Z,76.90
2017-12-17T15:19:10.979Z,86.73
2017-12-17T15:21:39.361Z,75.69
2017-12-17T15:24:07.719Z,75.50
2017-12-17T15:26:36.054Z,77.79
2017-12-17T15:29:04.465Z,76.35
2017-12-17T15:31:32.797Z,76.66
2017-12-17T15:34:01.932Z,76.65
2017-12-17T15:36:30.251Z,76.84
2017-12-17T15:38:58.594Z,76.55
2017-12-17T15:41:27.081Z,76.70
2017-12-17T15:43:55.366Z,76.76
2017-12-17T15:46:23.700Z,76.51
2017-12-17T15:48:52.039Z,76.20
2017-12-17T15:51:21.196Z,76.03
2017-12-17T15:53:49.519Z,76.06
2017-12-17T15:56:18.632Z,75.63
2017-12-17T15:58:47.019Z,75.45
2017-12-17T16:01:15.401Z,75.47
2017-12-17T16:03:43.772Z,75.91
2017-12-17T16:06:12.117Z,75.74
2017-12-17T16:08:40.518Z,76.20
2017-12-17T16:11:09.667Z,76.13
2017-12-17T16:13:38.049Z,76.13
2017-12-17T16:16:06.415Z,75.68
2017-12-17T16:18:34.880Z,76.10
2017-12-17T16:21:03.308Z,82.36
2017-12-17T16:23:31.680Z,79.80
2017-12-17T16:25:59.989Z,80.22
2017-12-17T16:28:28.345Z,74.36
2017-12-17T16:30:56.676Z,75.98
2017-12-17T16:33:25.030Z,75.97
2017-12-17T16:35:53.366Z,79.34
2017-12-17T16:38:21.692Z,79.80
2017-12-17T16:40:50.043Z,83.98
2017-12-17T16:43:19.180Z,75.40
2017-12-17T16:45:47.527Z,76.56
2017-12-17T16:48:15.876Z,78.01
2017-12-17T16:50:44.201Z,76.25
2017-12-17T16:53:12.791Z,79.30
2017-12-17T16:55:41.126Z,79.62
2017-12-17T16:58:10.205Z,77.16
2017-12-17T17:00:38.561Z,77.92
2017-12-17T17:03:06.890Z,77.03
2017-12-17T17:05:35.226Z,76.08
2017-12-17T17:08:03.579Z,75.11
2017-12-17T17:10:31.911Z,76.61
2017-12-17T17:13:01.034Z,75.14
2017-12-17T17:15:29.349Z,76.15
2017-12-17T17:17:57.724Z,76.32
2017-12-17T17:20:26.107Z,76.20
2017-12-17T17:22:54.439Z,76.19
2017-12-17T17:25:22.795Z,76.28
2017-12-17T17:27:51.906Z,76.54
2017-12-17T17:30:20.267Z,76.87
2017-12-17T17:32:49.367Z,75.97
2017-12-17T17:35:17.721Z,76.08
2017-12-17T17:37:46.849Z,75.74
2017-12-17T17:40:15.197Z,75.73
2017-12-17T17:42:43.527Z,75.79
2017-12-17T17:45:11.961Z,75.97
2017-12-17T17:47:41.125Z,75.61
2017-12-17T17:50:09.466Z,75.33
2017-12-17T17:52:37.843Z,75.51
2017-12-17T17:55:06.206Z,74.87
2017-12-17T17:57:35.279Z,74.77
2017-12-17T18:00:03.604Z,74.94
2017-12-17T18:02:31.963Z,74.95
2017-12-17T18:05:00.314Z,74.89
2017-12-17T18:07:28.664Z,74.53
2017-12-17T18:09:57.001Z,73.94
2017-12-17T18:12:25.545Z,72.86
2017-12-17T18:14:53.861Z,73.17
2017-12-17T18:17:22.229Z,72.82
2017-12-17T18:19:50.606Z,73.01
2017-12-17T18:22:18.969Z,73.29
2017-12-17T18:24:48.212Z,73.16
2017-12-17T18:27:16.548Z,73.19
2017-12-17T18:29:45.642Z,73.27
2017-12-17T18:32:14.931Z,73.32
2017-12-17T18:34:44.029Z,73.76
2017-12-17T18:37:12.538Z,74.03
2017-12-17T18:39:40.899Z,74.30
2017-12-17T18:42:09.260Z,74.78
2017-12-17T18:44:37.603Z,74.47
2017-12-17T18:47:05.923Z,74.35
2017-12-17T18:49:35.119Z,74.03
2017-12-17T18:52:04.358Z,72.04
2017-12-17T18:54:32.791Z,74.13
2017-12-17T18:57:01.116Z,73.78
2017-12-17T18:59:29.452Z,74.26
2017-12-17T19:01:58.657Z,74.62
2017-12-17T19:04:27.177Z,74.58
2017-12-17T19:06:55.509Z,75.20
2017-12-17T19:09:24.645Z,74.81
2017-12-17T19:11:52.970Z,75.05
2017-12-17T19:14:21.446Z,75.02
2017-12-17T19:16:49.903Z,74.94
2017-12-17T19:19:18.305Z,75.49
2017-12-17T19:21:46.656Z,75.72
2017-12-17T19:24:14.981Z,75.46
2017-12-17T19:26:43.291Z,76.31
2017-12-17T19:29:11.635Z,76.34
2017-12-17T19:31:40.740Z,76.41
2017-12-17T19:34:09.073Z,76.31
2017-12-17T19:36:37.391Z,76.76
2017-12-17T19:39:06.505Z,76.89
2017-12-17T19:41:34.895Z,77.47
2017-12-17T19:44:03.216Z,77.24
2017-12-17T19:46:31.547Z,77.27
2017-12-17T19:49:05.010Z,77.59
2017-12-17T19:51:34.355Z,77.63
2017-12-17T19:54:02.723Z,77.66
2017-12-17T19:56:31.047Z,78.00
2017-12-17T19:59:00.176Z,77.90
2017-12-17T20:01:28.530Z,77.57
2017-12-17T20:03:57.620Z,77.35
2017-12-17T20:06:25.955Z,78.01
2017-12-17T20:08:54.312Z,77.87
2017-12-17T20:11:22.655Z,78.33
2017-12-17T20:13:50.992Z,78.05
2017-12-17T20:16:19.391Z,78.54
2017-12-17T20:18:47.708Z,79.36
2017-12-17T20:21:16.016Z,78.98
2017-12-17T20:23:44.390Z,78.86
2017-12-17T20:26:12.733Z,79.15
2017-12-17T20:28:41.086Z,79.09
2017-12-17T20:31:09.452Z,79.77
2017-12-17T20:33:37.803Z,79.41
2017-12-17T20:36:06.179Z,79.01
2017-12-17T20:38:34.527Z,78.86
2017-12-17T20:41:02.882Z,78.83
2017-12-17T20:43:31.968Z,79.02
2017-12-17T20:46:00.320Z,79.40
2017-12-17T20:48:28.668Z,79.74
2017-12-17T20:50:57.017Z,80.18
2017-12-17T20:53:25.362Z,80.19
2017-12-17T20:55:53.691Z,80.05
2017-12-17T20:58:22.036Z,80.22
2017-12-17T21:00:50.384Z,80.15
2017-12-17T21:03:18.723Z,80.00
2017-12-17T21:05:47.092Z,80.67
2017-12-17T21:08:15.443Z,80.53
2017-12-17T21:10:43.776Z,80.56
2017-12-17T21:13:12.317Z,80.88
2017-12-17T21:15:41.411Z,81.69
2017-12-17T21:18:10.505Z,82.28
2017-12-17T21:20:39.656Z,82.10
2017-12-17T21:23:07.982Z,81.88
2017-12-17T21:25:37.144Z,81.67
2017-12-17T21:28:06.366Z,82.57
2017-12-17T21:30:34.700Z,82.33
2017-12-17T21:33:03.029Z,82.79
2017-12-17T21:35:32.224Z,82.33
2017-12-17T21:38:01.365Z,82.93
2017-12-17T21:40:29.817Z,82.92
2017-12-17T21:42:58.164Z,82.74
2017-12-17T21:45:26.501Z,82.75
2017-12-17T21:47:54.834Z,82.46
2017-12-17T21:50:23.193Z,82.98
2017-12-17T21:52:51.512Z,82.79
2017-12-17T21:55:19.845Z,82.91
2017-12-17T21:57:48.211Z,83.49
2017-12-17T22:00:16.642Z,83.62
2017-12-17T22:02:45.019Z,84.28
2017-12-17T22:05:13.375Z,84.64
2017-12-17T22:07:42.460Z,84.52
2017-12-17T22:10:10.952Z,84.21
2017-12-17T22:12:39.298Z,84.49
2017-12-17T22:15:07.633Z,84.67
2017-12-17T22:17:35.985Z,84.27
2017-12-17T22:20:05.074Z,84.33
2017-12-17T22:22:33.406Z,84.27
2017-12-17T22:25:01.732Z,83.99
2017-12-17T22:27:30.835Z,84.06
2017-12-17T22:29:59.927Z,84.19
2017-12-17T22:32:28.292Z,84.30
2017-12-17T22:34:56.666Z,84.51
2017-12-17T22:37:24.979Z,84.44
2017-12-17T22:39:53.343Z,84.45
2017-12-17T22:42:22.475Z,84.75
2017-12-17T22:44:50.851Z,84.37
2017-12-17T22:47:19.172Z,84.61
2017-12-17T22:49:47.507Z,84.17
2017-12-17T22:52:15.839Z,84.35
2017-12-17T22:54:44.204Z,83.90
2017-12-17T22:57:12.572Z,83.94
2017-12-17T22:59:40.927Z,83.85
2017-12-17T23:02:09.270Z,83.48
2017-12-17T23:04:37.619Z,83.19
2017-12-17T23:07:06.751Z,83.26
2017-12-17T23:09:35.096Z,83.28
2017-12-17T23:12:04.188Z,83.70
2017-12-17T23:14:32.542Z,83.62
2017-12-17T23:17:00.869Z,83.67
2017-12-17T23:19:29.211Z,83.81
2017-12-17T23:21:57.601Z,83.87
2017-12-17T23:24:26.720Z,83.74
2017-12-17T23:26:55.057Z,83.61
2017-12-17T23:29:23.432Z,83.02
2017-12-17T23:31:52.536Z,82.57
2017-12-17T23:34:20.880Z,82.20
2017-12-17T23:36:49.204Z,81.99
2017-12-17T23:39:17.575Z,82.36
2017-12-17T23:41:46.670Z,82.90
2017-12-17T23:44:15.906Z,83.40
2017-12-17T23:46:44.225Z,83.39
2017-12-17T23:49:12.701Z,83.66
2017-12-17T23:51:41.040Z,84.00
2017-12-17T23:54:09.383Z,84.16
2017-12-17T23:56:37.702Z,84.07
2017-12-17T23:59:06.072Z,83.79
